sensor_id;sensor_type;location;lat;lon;timestamp;temperature;humidity
72650;SHT31;61467;50.674;4.618;2024-02-21T00:01:21;9.49;79.65
72650;SHT31;61467;50.674;4.618;2024-02-21T00:03:48;9.51;79.73
72650;SHT31;61467;50.674;4.618;2024-02-21T00:06:15;9.48;79.65
72650;SHT31;61467;50.674;4.618;2024-02-21T00:08:43;9.28;80.74
72650;SHT31;61467;50.674;4.618;2024-02-21T00:11:09;9.44;79.97
72650;SHT31;61467;50.674;4.618;2024-02-21T00:13:36;9.39;80.07
72650;SHT31;61467;50.674;4.618;2024-02-21T00:16:04;9.59;79.49
72650;SHT31;61467;50.674;4.618;2024-02-21T00:18:30;9.31;80.50
72650;SHT31;61467;50.674;4.618;2024-02-21T00:20:57;9.28;80.97
72650;SHT31;61467;50.674;4.618;2024-02-21T00:23:27;9.27;80.49
72650;SHT31;61467;50.674;4.618;2024-02-21T00:25:55;9.31;81.07
72650;SHT31;61467;50.674;4.618;2024-02-21T00:28:22;9.35;80.33
72650;SHT31;61467;50.674;4.618;2024-02-21T00:30:48;9.42;80.22
72650;SHT31;61467;50.674;4.618;2024-02-21T00:33:16;9.42;80.50
72650;SHT31;61467;50.674;4.618;2024-02-21T00:35:43;9.27;80.67
72650;SHT31;61467;50.674;4.618;2024-02-21T00:38:10;9.35;80.18
72650;SHT31;61467;50.674;4.618;2024-02-21T00:40:36;9.32;80.62
72650;SHT31;61467;50.674;4.618;2024-02-21T00:43:04;9.44;80.56
72650;SHT31;61467;50.674;4.618;2024-02-21T00:45:31;9.42;80.25
72650;SHT31;61467;50.674;4.618;2024-02-21T00:47:58;9.38;80.21
72650;SHT31;61467;50.674;4.618;2024-02-21T00:50:25;9.39;79.88
72650;SHT31;61467;50.674;4.618;2024-02-21T00:52:52;9.63;79.51
72650;SHT31;61467;50.674;4.618;2024-02-21T00:55:18;9.65;79.40
72650;SHT31;61467;50.674;4.618;2024-02-21T00:57:45;9.44;79.49
72650;SHT31;61467;50.674;4.618;2024-02-21T01:00:14;9.46;79.74
72650;SHT31;61467;50.674;4.618;2024-02-21T01:02:41;9.36;80.24
72650;SHT31;61467;50.674;4.618;2024-02-21T01:05:08;9.46;80.01
72650;SHT31;61467;50.674;4.618;2024-02-21T01:07:34;9.42;79.84
72650;SHT31;61467;50.674;4.618;2024-02-21T01:10:01;9.34;80.13
72650;SHT31;61467;50.674;4.618;2024-02-21T01:12:28;9.27;80.44
72650;SHT31;61467;50.674;4.618;2024-02-21T01:14:55;9.45;80.21
72650;SHT31;61467;50.674;4.618;2024-02-21T01:17:23;9.46;80.03
72650;SHT31;61467;50.674;4.618;2024-02-21T01:19:50;9.45;79.72
72650;SHT31;61467;50.674;4.618;2024-02-21T01:22:16;9.48;79.21
72650;SHT31;61467;50.674;4.618;2024-02-21T01:24:46;9.44;80.04
72650;SHT31;61467;50.674;4.618;2024-02-21T01:27:12;9.41;80.48
72650;SHT31;61467;50.674;4.618;2024-02-21T01:29:39;9.30;80.47
72650;SHT31;61467;50.674;4.618;2024-02-21T01:32:06;9.34;80.71
72650;SHT31;61467;50.674;4.618;2024-02-21T01:34:34;9.45;79.87
72650;SHT31;61467;50.674;4.618;2024-02-21T01:37:02;9.61;79.50
72650;SHT31;61467;50.674;4.618;2024-02-21T01:39:30;9.41;79.73
72650;SHT31;61467;50.674;4.618;2024-02-21T01:41:57;9.34;79.91
72650;SHT31;61467;50.674;4.618;2024-02-21T01:44:24;9.56;79.60
72650;SHT31;61467;50.674;4.618;2024-02-21T01:46:52;9.21;80.47
72650;SHT31;61467;50.674;4.618;2024-02-21T01:49:19;9.49;79.58
72650;SHT31;61467;50.674;4.618;2024-02-21T01:51:48;9.54;79.65
72650;SHT31;61467;50.674;4.618;2024-02-21T01:54:17;9.42;79.78
72650;SHT31;61467;50.674;4.618;2024-02-21T01:56:46;9.44;79.31
72650;SHT31;61467;50.674;4.618;2024-02-21T01:59:15;9.39;79.47
72650;SHT31;61467;50.674;4.618;2024-02-21T02:01:43;9.56;79.47
72650;SHT31;61467;50.674;4.618;2024-02-21T02:04:11;9.46;79.50
72650;SHT31;61467;50.674;4.618;2024-02-21T02:06:39;9.30;79.76
72650;SHT31;61467;50.674;4.618;2024-02-21T02:09:07;9.32;80.24
72650;SHT31;61467;50.674;4.618;2024-02-21T02:11:35;9.39;79.73
72650;SHT31;61467;50.674;4.618;2024-02-21T02:14:02;9.31;79.85
72650;SHT31;61467;50.674;4.618;2024-02-21T02:16:29;9.49;79.65
72650;SHT31;61467;50.674;4.618;2024-02-21T02:18:56;9.48;79.54
72650;SHT31;61467;50.674;4.618;2024-02-21T02:21:27;9.44;79.58
72650;SHT31;61467;50.674;4.618;2024-02-21T02:23:56;9.42;79.61
72650;SHT31;61467;50.674;4.618;2024-02-21T02:26:23;9.18;80.21
72650;SHT31;61467;50.674;4.618;2024-02-21T02:28:50;9.44;79.68
72650;SHT31;61467;50.674;4.618;2024-02-21T02:31:16;9.28;79.94
72650;SHT31;61467;50.674;4.618;2024-02-21T02:33:43;9.34;79.98
72650;SHT31;61467;50.674;4.618;2024-02-21T02:36:10;9.45;79.87
72650;SHT31;61467;50.674;4.618;2024-02-21T02:38:37;9.36;80.04
72650;SHT31;61467;50.674;4.618;2024-02-21T02:41:05;9.39;79.51
72650;SHT31;61467;50.674;4.618;2024-02-21T02:43:32;9.46;79.52
72650;SHT31;61467;50.674;4.618;2024-02-21T02:45:59;9.44;79.87
72650;SHT31;61467;50.674;4.618;2024-02-21T02:48:25;9.36;79.52
72650;SHT31;61467;50.674;4.618;2024-02-21T02:50:52;9.44;79.73
72650;SHT31;61467;50.674;4.618;2024-02-21T02:53:19;9.35;79.60
72650;SHT31;61467;50.674;4.618;2024-02-21T02:55:46;9.38;79.40
72650;SHT31;61467;50.674;4.618;2024-02-21T02:58:14;9.39;79.61
72650;SHT31;61467;50.674;4.618;2024-02-21T03:00:41;9.44;79.55
72650;SHT31;61467;50.674;4.618;2024-02-21T03:03:07;9.55;79.25
72650;SHT31;61467;50.674;4.618;2024-02-21T03:05:34;9.54;79.22
72650;SHT31;61467;50.674;4.618;2024-02-21T03:08:01;9.59;79.01
72650;SHT31;61467;50.674;4.618;2024-02-21T03:10:32;9.61;78.95
72650;SHT31;61467;50.674;4.618;2024-02-21T03:12:59;9.61;78.99
72650;SHT31;61467;50.674;4.618;2024-02-21T03:15:27;9.73;78.62
72650;SHT31;61467;50.674;4.618;2024-02-21T03:17:54;9.66;78.88
72650;SHT31;61467;50.674;4.618;2024-02-21T03:20:21;9.46;79.38
72650;SHT31;61467;50.674;4.618;2024-02-21T03:22:48;9.58;78.59
72650;SHT31;61467;50.674;4.618;2024-02-21T03:25:15;9.30;79.80
72650;SHT31;61467;50.674;4.618;2024-02-21T03:27:42;9.31;79.68
72650;SHT31;61467;50.674;4.618;2024-02-21T03:30:09;9.41;79.34
72650;SHT31;61467;50.674;4.618;2024-02-21T03:32:37;9.51;79.61
72650;SHT31;61467;50.674;4.618;2024-02-21T03:35:06;9.55;79.10
72650;SHT31;61467;50.674;4.618;2024-02-21T03:37:35;9.42;79.28
72650;SHT31;61467;50.674;4.618;2024-02-21T03:40:02;9.54;79.37
72650;SHT31;61467;50.674;4.618;2024-02-21T03:42:29;9.54;79.22
72650;SHT31;61467;50.674;4.618;2024-02-21T03:44:57;9.66;78.64
72650;SHT31;61467;50.674;4.618;2024-02-21T03:47:23;9.62;78.59
72650;SHT31;61467;50.674;4.618;2024-02-21T03:49:51;9.61;78.77
72650;SHT31;61467;50.674;4.618;2024-02-21T03:52:18;9.61;79.16
72650;SHT31;61467;50.674;4.618;2024-02-21T03:54:45;9.65;78.84
72650;SHT31;61467;50.674;4.618;2024-02-21T03:57:12;9.44;79.34
72650;SHT31;61467;50.674;4.618;2024-02-21T03:59:38;9.48;79.41
72650;SHT31;61467;50.674;4.618;2024-02-21T04:02:05;9.34;79.91
72650;SHT31;61467;50.674;4.618;2024-02-21T04:04:34;9.48;79.68
72650;SHT31;61467;50.674;4.618;2024-02-21T04:07:03;9.31;80.16
72650;SHT31;61467;50.674;4.618;2024-02-21T04:09:32;9.52;79.37
72650;SHT31;61467;50.674;4.618;2024-02-21T04:11:59;9.34;79.92
72650;SHT31;61467;50.674;4.618;2024-02-21T04:14:26;9.48;79.65
72650;SHT31;61467;50.674;4.618;2024-02-21T04:16:53;9.38;79.93
72650;SHT31;61467;50.674;4.618;2024-02-21T04:19:19;9.58;79.20
72650;SHT31;61467;50.674;4.618;2024-02-21T04:21:46;9.35;80.17
72650;SHT31;61467;50.674;4.618;2024-02-21T04:24:14;9.28;80.03
72650;SHT31;61467;50.674;4.618;2024-02-21T04:26:41;9.52;79.52
72650;SHT31;61467;50.674;4.618;2024-02-21T04:29:09;9.25;80.38
72650;SHT31;61467;50.674;4.618;2024-02-21T04:31:35;9.38;79.93
72650;SHT31;61467;50.674;4.618;2024-02-21T04:34:02;9.34;80.05
72650;SHT31;61467;50.674;4.618;2024-02-21T04:36:29;9.46;79.75
72650;SHT31;61467;50.674;4.618;2024-02-21T04:38:56;9.52;79.45
72650;SHT31;61467;50.674;4.618;2024-02-21T04:41:24;9.46;79.76
72650;SHT31;61467;50.674;4.618;2024-02-21T04:43:51;9.46;79.77
72650;SHT31;61467;50.674;4.618;2024-02-21T04:46:18;9.46;79.50
72650;SHT31;61467;50.674;4.618;2024-02-21T04:48:45;9.35;80.28
72650;SHT31;61467;50.674;4.618;2024-02-21T04:51:12;9.18;80.67
72650;SHT31;61467;50.674;4.618;2024-02-21T04:53:39;9.45;80.27
72650;SHT31;61467;50.674;4.618;2024-02-21T04:56:06;9.21;80.51
72650;SHT31;61467;50.674;4.618;2024-02-21T04:58:37;9.31;80.14
72650;SHT31;61467;50.674;4.618;2024-02-21T05:01:04;9.20;80.62
72650;SHT31;61467;50.674;4.618;2024-02-21T05:03:31;9.41;79.53
72650;SHT31;61467;50.674;4.618;2024-02-21T05:05:59;9.21;80.41
72650;SHT31;61467;50.674;4.618;2024-02-21T05:08:25;9.30;80.02
72650;SHT31;61467;50.674;4.618;2024-02-21T05:10:52;9.28;80.56
72650;SHT31;61467;50.674;4.618;2024-02-21T05:13:19;9.32;80.37
72650;SHT31;61467;50.674;4.618;2024-02-21T05:15:47;9.23;80.36
72650;SHT31;61467;50.674;4.618;2024-02-21T05:18:14;9.34;80.41
72650;SHT31;61467;50.674;4.618;2024-02-21T05:20:41;9.41;79.79
72650;SHT31;61467;50.674;4.618;2024-02-21T05:23:07;9.32;79.73
72650;SHT31;61467;50.674;4.618;2024-02-21T05:25:34;9.21;80.21
72650;SHT31;61467;50.674;4.618;2024-02-21T05:28:01;9.36;79.81
72650;SHT31;61467;50.674;4.618;2024-02-21T05:30:28;9.34;80.05
72650;SHT31;61467;50.674;4.618;2024-02-21T05:32:57;9.25;80.36
72650;SHT31;61467;50.674;4.618;2024-02-21T05:35:26;9.38;80.17
72650;SHT31;61467;50.674;4.618;2024-02-21T05:37:53;9.41;80.10
72650;SHT31;61467;50.674;4.618;2024-02-21T05:40:20;9.25;80.61
72650;SHT31;61467;50.674;4.618;2024-02-21T05:42:46;9.32;80.63
72650;SHT31;61467;50.674;4.618;2024-02-21T05:45:13;9.32;80.73
72650;SHT31;61467;50.674;4.618;2024-02-21T05:47:41;9.30;80.79
72650;SHT31;61467;50.674;4.618;2024-02-21T05:50:10;9.25;80.77
72650;SHT31;61467;50.674;4.618;2024-02-21T05:52:37;9.39;80.91
72650;SHT31;61467;50.674;4.618;2024-02-21T05:55:04;9.35;80.94
72650;SHT31;61467;50.674;4.618;2024-02-21T05:57:34;9.31;81.37
72650;SHT31;61467;50.674;4.618;2024-02-21T06:00:03;9.17;81.64
72650;SHT31;61467;50.674;4.618;2024-02-21T06:02:31;9.13;81.87
72650;SHT31;61467;50.674;4.618;2024-02-21T06:04:57;8.94;82.58
72650;SHT31;61467;50.674;4.618;2024-02-21T06:07:26;8.90;82.83
72650;SHT31;61467;50.674;4.618;2024-02-21T06:09:52;8.94;82.87
72650;SHT31;61467;50.674;4.618;2024-02-21T06:12:19;9.15;82.14
72650;SHT31;61467;50.674;4.618;2024-02-21T06:14:46;9.11;82.53
72650;SHT31;61467;50.674;4.618;2024-02-21T06:17:12;9.18;82.27
72650;SHT31;61467;50.674;4.618;2024-02-21T06:19:40;9.24;82.21
72650;SHT31;61467;50.674;4.618;2024-02-21T06:22:07;9.07;82.80
72650;SHT31;61467;50.674;4.618;2024-02-21T06:24:35;9.10;83.04
72650;SHT31;61467;50.674;4.618;2024-02-21T06:27:03;9.23;82.49
72650;SHT31;61467;50.674;4.618;2024-02-21T06:29:31;9.10;83.11
72650;SHT31;61467;50.674;4.618;2024-02-21T06:31:58;9.00;83.12
72650;SHT31;61467;50.674;4.618;2024-02-21T06:34:24;9.11;83.11
72650;SHT31;61467;50.674;4.618;2024-02-21T06:36:51;9.07;83.26
72650;SHT31;61467;50.674;4.618;2024-02-21T06:39:18;9.20;83.14
72650;SHT31;61467;50.674;4.618;2024-02-21T06:41:46;9.10;83.26
72650;SHT31;61467;50.674;4.618;2024-02-21T06:44:13;8.90;83.72
72650;SHT31;61467;50.674;4.618;2024-02-21T06:46:40;8.80;84.35
72650;SHT31;61467;50.674;4.618;2024-02-21T06:49:06;9.03;84.04
72650;SHT31;61467;50.674;4.618;2024-02-21T06:51:33;8.91;84.50
72650;SHT31;61467;50.674;4.618;2024-02-21T06:54:02;8.86;84.57
72650;SHT31;61467;50.674;4.618;2024-02-21T06:56:29;8.94;84.28
72650;SHT31;61467;50.674;4.618;2024-02-21T06:58:58;8.90;83.86
72650;SHT31;61467;50.674;4.618;2024-02-21T07:01:24;9.05;83.66
72650;SHT31;61467;50.674;4.618;2024-02-21T07:03:51;9.18;83.23
72650;SHT31;61467;50.674;4.618;2024-02-21T07:06:18;9.00;83.43
72650;SHT31;61467;50.674;4.618;2024-02-21T07:08:45;9.14;83.08
72650;SHT31;61467;50.674;4.618;2024-02-21T07:11:14;9.11;83.17
72650;SHT31;61467;50.674;4.618;2024-02-21T07:13:41;9.00;83.69
72650;SHT31;61467;50.674;4.618;2024-02-21T07:16:09;8.88;83.26
72650;SHT31;61467;50.674;4.618;2024-02-21T07:18:36;8.83;83.45
72650;SHT31;61467;50.674;4.618;2024-02-21T07:21:04;8.94;83.18
72650;SHT31;61467;50.674;4.618;2024-02-21T07:23:30;8.96;82.95
72650;SHT31;61467;50.674;4.618;2024-02-21T07:25:57;8.91;82.75
72650;SHT31;61467;50.674;4.618;2024-02-21T07:28:24;9.00;82.67
72650;SHT31;61467;50.674;4.618;2024-02-21T07:30:51;9.07;81.91
72650;SHT31;61467;50.674;4.618;2024-02-21T07:33:19;8.79;82.46
72650;SHT31;61467;50.674;4.618;2024-02-21T07:35:45;8.91;82.51
72650;SHT31;61467;50.674;4.618;2024-02-21T07:38:12;8.94;82.50
72650;SHT31;61467;50.674;4.618;2024-02-21T07:40:39;8.88;81.72
72650;SHT31;61467;50.674;4.618;2024-02-21T07:43:06;8.94;81.99
72650;SHT31;61467;50.674;4.618;2024-02-21T07:45:33;9.07;81.26
72650;SHT31;61467;50.674;4.618;2024-02-21T07:48:00;9.07;81.15
72650;SHT31;61467;50.674;4.618;2024-02-21T07:50:28;9.01;81.31
72650;SHT31;61467;50.674;4.618;2024-02-21T07:52:55;8.84;81.22
72650;SHT31;61467;50.674;4.618;2024-02-21T07:55:22;8.91;81.52
72650;SHT31;61467;50.674;4.618;2024-02-21T07:57:49;9.03;81.23
72650;SHT31;61467;50.674;4.618;2024-02-21T08:00:17;8.87;81.33
72650;SHT31;61467;50.674;4.618;2024-02-21T08:02:47;9.10;80.39
72650;SHT31;61467;50.674;4.618;2024-02-21T08:05:14;8.99;80.68
72650;SHT31;61467;50.674;4.618;2024-02-21T08:07:42;8.96;81.06
72650;SHT31;61467;50.674;4.618;2024-02-21T08:10:11;9.00;80.73
72650;SHT31;61467;50.674;4.618;2024-02-21T08:12:38;9.11;80.50
72650;SHT31;61467;50.674;4.618;2024-02-21T08:15:05;9.23;79.68
72650;SHT31;61467;50.674;4.618;2024-02-21T08:17:33;9.10;80.07
72650;SHT31;61467;50.674;4.618;2024-02-21T08:20:00;9.00;80.41
72650;SHT31;61467;50.674;4.618;2024-02-21T08:22:28;9.31;79.15
72650;SHT31;61467;50.674;4.618;2024-02-21T08:24:56;9.13;79.53
72650;SHT31;61467;50.674;4.618;2024-02-21T08:27:23;9.04;79.97
72650;SHT31;61467;50.674;4.618;2024-02-21T08:29:50;9.23;79.73
72650;SHT31;61467;50.674;4.618;2024-02-21T08:32:17;9.20;79.69
72650;SHT31;61467;50.674;4.618;2024-02-21T08:34:43;9.18;79.24
72650;SHT31;61467;50.674;4.618;2024-02-21T08:37:10;9.15;79.66
72650;SHT31;61467;50.674;4.618;2024-02-21T08:39:37;9.07;79.73
72650;SHT31;61467;50.674;4.618;2024-02-21T08:42:06;8.88;80.01
72650;SHT31;61467;50.674;4.618;2024-02-21T08:44:33;9.21;79.13
72650;SHT31;61467;50.674;4.618;2024-02-21T08:46:59;9.23;78.62
72650;SHT31;61467;50.674;4.618;2024-02-21T08:49:29;9.18;79.29
72650;SHT31;61467;50.674;4.618;2024-02-21T08:51:56;9.21;78.47
72650;SHT31;61467;50.674;4.618;2024-02-21T08:54:23;9.38;77.75
72650;SHT31;61467;50.674;4.618;2024-02-21T08:56:50;9.35;78.34
72650;SHT31;61467;50.674;4.618;2024-02-21T08:59:18;9.25;78.46
72650;SHT31;61467;50.674;4.618;2024-02-21T09:01:46;9.21;78.44
72650;SHT31;61467;50.674;4.618;2024-02-21T09:04:14;9.44;78.03
72650;SHT31;61467;50.674;4.618;2024-02-21T09:06:41;9.52;77.70
72650;SHT31;61467;50.674;4.618;2024-02-21T09:09:08;9.45;77.83
72650;SHT31;61467;50.674;4.618;2024-02-21T09:11:35;9.36;77.94
72650;SHT31;61467;50.674;4.618;2024-02-21T09:14:02;9.44;77.60
72650;SHT31;61467;50.674;4.618;2024-02-21T09:16:31;9.51;77.68
72650;SHT31;61467;50.674;4.618;2024-02-21T09:18:58;9.72;76.92
72650;SHT31;61467;50.674;4.618;2024-02-21T09:21:25;9.71;76.94
72650;SHT31;61467;50.674;4.618;2024-02-21T09:23:53;9.71;76.71
72650;SHT31;61467;50.674;4.618;2024-02-21T09:26:20;9.62;77.61
72650;SHT31;61467;50.674;4.618;2024-02-21T09:28:47;9.75;76.95
72650;SHT31;61467;50.674;4.618;2024-02-21T09:31:13;9.73;77.18
72650;SHT31;61467;50.674;4.618;2024-02-21T09:33:42;9.83;76.78
72650;SHT31;61467;50.674;4.618;2024-02-21T09:36:08;9.72;77.12
72650;SHT31;61467;50.674;4.618;2024-02-21T09:38:35;9.82;76.78
72650;SHT31;61467;50.674;4.618;2024-02-21T09:41:11;9.92;76.79
72650;SHT31;61467;50.674;4.618;2024-02-21T09:43:40;9.86;76.74
72650;SHT31;61467;50.674;4.618;2024-02-21T09:46:13;9.87;76.78
72650;SHT31;61467;50.674;4.618;2024-02-21T09:48:52;9.89;76.83
72650;SHT31;61467;50.674;4.618;2024-02-21T09:51:21;9.89;76.65
72650;SHT31;61467;50.674;4.618;2024-02-21T09:53:49;9.96;76.80
72650;SHT31;61467;50.674;4.618;2024-02-21T09:56:17;9.90;76.56
72650;SHT31;61467;50.674;4.618;2024-02-21T09:58:44;9.93;76.49
72650;SHT31;61467;50.674;4.618;2024-02-21T10:01:11;9.99;76.58
72650;SHT31;61467;50.674;4.618;2024-02-21T10:03:37;10.03;76.49
72650;SHT31;61467;50.674;4.618;2024-02-21T10:06:06;9.92;76.79
72650;SHT31;61467;50.674;4.618;2024-02-21T10:08:33;10.06;76.71
72650;SHT31;61467;50.674;4.618;2024-02-21T10:11:00;10.26;76.14
72650;SHT31;61467;50.674;4.618;2024-02-21T10:13:29;10.29;76.18
72650;SHT31;61467;50.674;4.618;2024-02-21T10:16:13;10.24;76.36
72650;SHT31;61467;50.674;4.618;2024-02-21T10:18:40;10.14;76.88
72650;SHT31;61467;50.674;4.618;2024-02-21T10:21:09;10.07;76.73
72650;SHT31;61467;50.674;4.618;2024-02-21T10:23:45;10.33;76.09
72650;SHT31;61467;50.674;4.618;2024-02-21T10:26:13;10.24;76.22
72650;SHT31;61467;50.674;4.618;2024-02-21T10:28:40;10.26;76.32
72650;SHT31;61467;50.674;4.618;2024-02-21T10:31:09;10.38;75.89
72650;SHT31;61467;50.674;4.618;2024-02-21T10:33:37;10.43;75.51
72650;SHT31;61467;50.674;4.618;2024-02-21T10:36:09;10.12;76.08
72650;SHT31;61467;50.674;4.618;2024-02-21T10:38:37;10.21;76.17
72650;SHT31;61467;50.674;4.618;2024-02-21T10:41:05;10.40;75.86
72650;SHT31;61467;50.674;4.618;2024-02-21T10:43:37;10.33;76.08
72650;SHT31;61467;50.674;4.618;2024-02-21T10:46:06;10.45;75.81
72650;SHT31;61467;50.674;4.618;2024-02-21T10:48:42;10.45;75.43
72650;SHT31;61467;50.674;4.618;2024-02-21T10:51:16;10.34;75.75
72650;SHT31;61467;50.674;4.618;2024-02-21T10:53:45;10.14;76.36
72650;SHT31;61467;50.674;4.618;2024-02-21T10:56:22;10.24;76.09
72650;SHT31;61467;50.674;4.618;2024-02-21T10:58:50;10.32;75.63
72650;SHT31;61467;50.674;4.618;2024-02-21T11:01:18;10.44;74.96
72650;SHT31;61467;50.674;4.618;2024-02-21T11:03:47;10.57;74.74
72650;SHT31;61467;50.674;4.618;2024-02-21T11:06:17;10.45;74.98
72650;SHT31;61467;50.674;4.618;2024-02-21T11:08:45;10.57;74.83
72650;SHT31;61467;50.674;4.618;2024-02-21T11:11:12;10.45;74.54
72650;SHT31;61467;50.674;4.618;2024-02-21T11:13:42;10.44;74.72
72650;SHT31;61467;50.674;4.618;2024-02-21T11:16:12;10.37;74.63
72650;SHT31;61467;50.674;4.618;2024-02-21T11:18:47;10.38;74.84
72650;SHT31;61467;50.674;4.618;2024-02-21T11:21:15;10.48;74.75
72650;SHT31;61467;50.674;4.618;2024-02-21T11:23:42;10.57;74.00
72650;SHT31;61467;50.674;4.618;2024-02-21T11:26:09;10.36;74.72
72650;SHT31;61467;50.674;4.618;2024-02-21T11:28:37;10.36;75.32
72650;SHT31;61467;50.674;4.618;2024-02-21T11:31:07;10.45;74.53
72650;SHT31;61467;50.674;4.618;2024-02-21T11:33:34;10.55;74.38
72650;SHT31;61467;50.674;4.618;2024-02-21T11:36:01;10.51;74.38
72650;SHT31;61467;50.674;4.618;2024-02-21T11:38:32;10.63;74.72
72650;SHT31;61467;50.674;4.618;2024-02-21T11:40:59;10.61;74.24
72650;SHT31;61467;50.674;4.618;2024-02-21T11:43:25;10.63;74.44
72650;SHT31;61467;50.674;4.618;2024-02-21T11:45:59;10.51;75.13
72650;SHT31;61467;50.674;4.618;2024-02-21T11:48:26;10.61;74.59
72650;SHT31;61467;50.674;4.618;2024-02-21T11:50:54;10.50;75.23
72650;SHT31;61467;50.674;4.618;2024-02-21T11:53:21;10.60;74.46
72650;SHT31;61467;50.674;4.618;2024-02-21T11:55:50;10.72;74.53
72650;SHT31;61467;50.674;4.618;2024-02-21T11:58:16;10.64;74.54
72650;SHT31;61467;50.674;4.618;2024-02-21T12:00:43;10.67;74.01
72650;SHT31;61467;50.674;4.618;2024-02-21T12:03:10;10.64;74.16
72650;SHT31;61467;50.674;4.618;2024-02-21T12:05:37;10.76;73.69
72650;SHT31;61467;50.674;4.618;2024-02-21T12:08:04;10.75;73.96
72650;SHT31;61467;50.674;4.618;2024-02-21T12:10:31;10.71;73.98
72650;SHT31;61467;50.674;4.618;2024-02-21T12:13:07;10.82;73.77
72650;SHT31;61467;50.674;4.618;2024-02-21T12:15:34;10.84;74.08
72650;SHT31;61467;50.674;4.618;2024-02-21T12:18:01;10.79;73.35
72650;SHT31;61467;50.674;4.618;2024-02-21T12:20:28;10.57;74.25
72650;SHT31;61467;50.674;4.618;2024-02-21T12:22:55;10.61;74.05
72650;SHT31;61467;50.674;4.618;2024-02-21T12:25:24;10.63;74.01
72650;SHT31;61467;50.674;4.618;2024-02-21T12:27:52;10.67;73.97
72650;SHT31;61467;50.674;4.618;2024-02-21T12:30:20;10.51;74.55
72650;SHT31;61467;50.674;4.618;2024-02-21T12:32:47;10.55;74.47
72650;SHT31;61467;50.674;4.618;2024-02-21T12:35:15;10.71;74.03
72650;SHT31;61467;50.674;4.618;2024-02-21T12:37:42;10.67;74.50
72650;SHT31;61467;50.674;4.618;2024-02-21T12:40:10;10.57;74.38
72650;SHT31;61467;50.674;4.618;2024-02-21T12:42:38;10.64;74.27
72650;SHT31;61467;50.674;4.618;2024-02-21T12:45:06;10.75;74.48
72650;SHT31;61467;50.674;4.618;2024-02-21T12:47:34;10.85;74.07
72650;SHT31;61467;50.674;4.618;2024-02-21T12:50:01;10.71;73.95
72650;SHT31;61467;50.674;4.618;2024-02-21T12:52:32;10.95;73.19
72650;SHT31;61467;50.674;4.618;2024-02-21T12:54:58;10.95;73.63
72650;SHT31;61467;50.674;4.618;2024-02-21T12:57:25;10.67;73.78
72650;SHT31;61467;50.674;4.618;2024-02-21T12:59:52;10.64;73.91
72650;SHT31;61467;50.674;4.618;2024-02-21T13:02:19;10.88;73.35
72650;SHT31;61467;50.674;4.618;2024-02-21T13:04:48;10.84;73.30
72650;SHT31;61467;50.674;4.618;2024-02-21T13:07:15;10.82;73.77
72650;SHT31;61467;50.674;4.618;2024-02-21T13:09:41;10.78;73.25
72650;SHT31;61467;50.674;4.618;2024-02-21T13:12:08;10.96;73.10
72650;SHT31;61467;50.674;4.618;2024-02-21T13:14:35;10.86;72.96
72650;SHT31;61467;50.674;4.618;2024-02-21T13:17:04;10.79;73.48
72650;SHT31;61467;50.674;4.618;2024-02-21T13:19:31;10.68;73.68
72650;SHT31;61467;50.674;4.618;2024-02-21T13:21:59;10.67;73.36
72650;SHT31;61467;50.674;4.618;2024-02-21T13:24:27;10.68;73.99
72650;SHT31;61467;50.674;4.618;2024-02-21T13:26:54;10.86;73.28
72650;SHT31;61467;50.674;4.618;2024-02-21T13:29:21;10.72;73.74
72650;SHT31;61467;50.674;4.618;2024-02-21T13:31:47;10.79;73.18
72650;SHT31;61467;50.674;4.618;2024-02-21T13:34:15;10.82;72.94
72650;SHT31;61467;50.674;4.618;2024-02-21T13:36:42;10.88;73.22
72650;SHT31;61467;50.674;4.618;2024-02-21T13:39:10;10.91;72.66
72650;SHT31;61467;50.674;4.618;2024-02-21T13:41:41;10.85;73.14
72650;SHT31;61467;50.674;4.618;2024-02-21T13:44:08;10.85;72.85
72650;SHT31;61467;50.674;4.618;2024-02-21T13:46:35;10.86;73.18
72650;SHT31;61467;50.674;4.618;2024-02-21T13:49:03;10.84;72.81
72650;SHT31;61467;50.674;4.618;2024-02-21T13:51:32;10.81;73.46
72650;SHT31;61467;50.674;4.618;2024-02-21T13:53:59;10.78;73.73
72650;SHT31;61467;50.674;4.618;2024-02-21T13:56:27;10.85;73.70
72650;SHT31;61467;50.674;4.618;2024-02-21T13:58:54;10.88;73.06
72650;SHT31;61467;50.674;4.618;2024-02-21T14:01:20;10.76;74.39
72650;SHT31;61467;50.674;4.618;2024-02-21T14:03:47;10.65;75.37
72650;SHT31;61467;50.674;4.618;2024-02-21T14:06:14;10.63;75.51
72650;SHT31;61467;50.674;4.618;2024-02-21T14:08:41;10.86;74.97
72650;SHT31;61467;50.674;4.618;2024-02-21T14:11:08;10.69;75.69
72650;SHT31;61467;50.674;4.618;2024-02-21T14:13:36;10.67;76.02
72650;SHT31;61467;50.674;4.618;2024-02-21T14:16:03;10.58;76.12
72650;SHT31;61467;50.674;4.618;2024-02-21T14:18:36;10.72;75.79
72650;SHT31;61467;50.674;4.618;2024-02-21T14:21:03;10.45;76.76
72650;SHT31;61467;50.674;4.618;2024-02-21T14:23:30;10.61;76.65
72650;SHT31;61467;50.674;4.618;2024-02-21T14:25:58;10.79;76.23
72650;SHT31;61467;50.674;4.618;2024-02-21T14:28:25;10.74;76.66
72650;SHT31;61467;50.674;4.618;2024-02-21T14:30:54;10.47;76.56
72650;SHT31;61467;50.674;4.618;2024-02-21T14:33:22;10.54;76.56
72650;SHT31;61467;50.674;4.618;2024-02-21T14:35:49;10.45;77.09
72650;SHT31;61467;50.674;4.618;2024-02-21T14:38:17;10.69;76.38
72650;SHT31;61467;50.674;4.618;2024-02-21T14:40:45;10.38;76.84
72650;SHT31;61467;50.674;4.618;2024-02-21T14:43:12;10.40;76.77
72650;SHT31;61467;50.674;4.618;2024-02-21T14:45:39;10.44;77.52
72650;SHT31;61467;50.674;4.618;2024-02-21T14:48:07;10.16;78.22
72650;SHT31;61467;50.674;4.618;2024-02-21T14:50:34;10.45;76.86
72650;SHT31;61467;50.674;4.618;2024-02-21T14:53:01;10.47;77.16
72650;SHT31;61467;50.674;4.618;2024-02-21T14:55:27;10.32;77.22
72650;SHT31;61467;50.674;4.618;2024-02-21T14:57:55;10.41;77.24
72650;SHT31;61467;50.674;4.618;2024-02-21T15:00:22;10.26;77.50
72650;SHT31;61467;50.674;4.618;2024-02-21T15:02:55;10.26;78.33
72650;SHT31;61467;50.674;4.618;2024-02-21T15:05:23;10.38;78.14
72650;SHT31;61467;50.674;4.618;2024-02-21T15:07:50;10.13;78.26
72650;SHT31;61467;50.674;4.618;2024-02-21T15:10:17;10.29;78.36
72650;SHT31;61467;50.674;4.618;2024-02-21T15:12:44;10.37;78.28
72650;SHT31;61467;50.674;4.618;2024-02-21T15:15:11;10.17;79.30
72650;SHT31;61467;50.674;4.618;2024-02-21T15:17:38;10.07;78.68
72650;SHT31;61467;50.674;4.618;2024-02-21T15:20:07;10.17;78.88
72650;SHT31;61467;50.674;4.618;2024-02-21T15:22:35;10.02;79.72
72650;SHT31;61467;50.674;4.618;2024-02-21T15:25:09;10.17;79.30
72650;SHT31;61467;50.674;4.618;2024-02-21T15:27:40;10.12;79.26
72650;SHT31;61467;50.674;4.618;2024-02-21T15:30:09;10.13;79.75
72650;SHT31;61467;50.674;4.618;2024-02-21T15:32:36;10.16;79.29
72650;SHT31;61467;50.674;4.618;2024-02-21T15:35:03;10.24;79.21
72650;SHT31;61467;50.674;4.618;2024-02-21T15:37:31;10.04;79.44
72650;SHT31;61467;50.674;4.618;2024-02-21T15:39:59;9.81;80.42
72650;SHT31;61467;50.674;4.618;2024-02-21T15:42:26;9.82;79.91